Time;durP1;ratioP1;P1;durP2;ratioP2;P2;SDS_P1;SDS_P2;PMS_P1;PMS_P2;Temp;Humidity;BMP_temperature;BMP_pressure;BME280_temperature;BME280_humidity;BME280_pressure;Samples;Min_cycle;Max_cycle;Signal;HPM_P1;HPM_P2
2022/01/07 00:01:38;;;;;;;3.08;1.95;;;;;;;-1.03;68.92;97180.56;5073647;28;20045;-57
2022/01/07 00:04:04;;;;;;;1.27;1.17;;;;;;;-1.01;68.92;97183.72;5070779;28;20041;-59
2022/01/07 00:06:30;;;;;;;2.55;1.30;;;;;;;-0.92;68.64;97187.63;5070980;28;20089;-58
2022/01/07 00:08:56;;;;;;;1.35;1.20;;;;;;;-0.86;68.76;97191.16;5069343;28;20440;-58
2022/01/07 00:11:21;;;;;;;1.30;1.17;;;;;;;-0.75;69.12;97187.03;5070584;28;20040;-58
2022/01/07 00:13:47;;;;;;;1.95;1.23;;;;;;;-0.69;68.35;97194.75;5072075;28;20078;-58
2022/01/07 00:16:13;;;;;;;1.23;1.15;;;;;;;-0.68;68.23;97200.75;5080845;28;20100;-57
2022/01/07 00:18:43;;;;;;;1.83;1.20;;;;;;;-0.70;68.32;97197.59;5083343;28;20527;-57
2022/01/07 00:21:10;;;;;;;7.22;1.13;;;;;;;-0.73;68.12;97200.63;5070665;28;20064;-58
2022/01/07 00:23:36;;;;;;;1.40;1.30;;;;;;;-0.69;68.45;97206.97;5071950;28;20478;-57
2022/01/07 00:26:03;;;;;;;1.35;1.20;;;;;;;-0.70;68.73;97200.19;5087341;28;20126;-56
2022/01/07 00:28:29;;;;;;;1.27;1.13;;;;;;;-0.64;68.61;97203.75;5076863;28;20049;-57
2022/01/07 00:30:55;;;;;;;1.30;1.20;;;;;;;-0.59;68.42;97202.06;5078657;28;20149;-56
2022/01/07 00:33:21;;;;;;;3.33;1.65;;;;;;;-0.58;68.40;97201.03;5084888;28;20086;-57
2022/01/07 00:35:47;;;;;;;1.25;1.15;;;;;;;-0.48;68.33;97196.09;5069677;28;20415;-56
2022/01/07 00:38:13;;;;;;;2.00;1.23;;;;;;;-0.42;68.06;97193.63;5089595;28;20094;-57
2022/01/07 00:40:39;;;;;;;1.33;1.10;;;;;;;-0.35;67.53;97196.97;5089492;28;20040;-54
2022/01/07 00:43:05;;;;;;;3.25;1.27;;;;;;;-0.30;67.34;97203.06;5079049;28;20058;-56
2022/01/07 00:45:32;;;;;;;2.92;1.48;;;;;;;-0.21;66.99;97194.94;5068661;28;20518;-57
2022/01/07 00:47:58;;;;;;;1.63;1.20;;;;;;;-0.22;67.31;97198.59;5072757;28;20040;-56
2022/01/07 00:50:26;;;;;;;1.70;1.30;;;;;;;-0.19;66.56;97196.31;5076990;28;20078;-58
2022/01/07 00:52:52;;;;;;;1.63;1.05;;;;;;;-0.42;66.44;97199.63;5076493;28;20044;-56
2022/01/07 00:55:19;;;;;;;1.90;1.30;;;;;;;-0.51;66.64;97201.75;5077092;28;20039;-57
2022/01/07 00:57:45;;;;;;;4.90;1.98;;;;;;;-0.49;67.15;97201.53;5076979;28;20127;-59
2022/01/07 01:00:14;;;;;;;1.58;1.27;;;;;;;-0.46;67.17;97211.50;5077601;28;20033;-57
2022/01/07 01:02:40;;;;;;;1.65;1.30;;;;;;;-0.54;67.25;97209.19;5097978;28;20052;-57
2022/01/07 01:05:08;;;;;;;2.55;1.50;;;;;;;-0.64;67.45;97206.34;5079807;28;20044;-57
2022/01/07 01:07:34;;;;;;;1.35;1.25;;;;;;;-0.45;67.38;97213.09;5076711;28;20044;-57
2022/01/07 01:10:01;;;;;;;1.40;1.27;;;;;;;-0.35;66.54;97213.38;5076572;28;20048;-58
2022/01/07 01:12:29;;;;;;;1.17;1.10;;;;;;;-0.42;67.03;97215.25;5077049;28;20357;-58
2022/01/07 01:14:54;;;;;;;1.55;1.20;;;;;;;-0.53;67.08;97208.19;5077713;28;20531;-58
2022/01/07 01:17:20;;;;;;;2.33;1.55;;;;;;;-0.48;66.61;97210.94;5076644;28;20041;-58
2022/01/07 01:19:46;;;;;;;1.30;1.20;;;;;;;-0.48;66.99;97208.31;5088456;28;20071;-58
2022/01/07 01:22:12;;;;;;;3.38;1.10;;;;;;;-0.36;66.67;97213.56;5086954;28;20128;-57
2022/01/07 01:24:38;;;;;;;1.50;1.40;;;;;;;-0.44;65.91;97212.09;5076593;28;20040;-59
2022/01/07 01:27:05;;;;;;;1.77;1.13;;;;;;;-0.39;66.68;97217.41;5077763;28;20441;-57
2022/01/07 01:29:32;;;;;;;1.58;1.30;;;;;;;-0.35;66.25;97210.78;5076823;28;20033;-56
2022/01/07 01:31:57;;;;;;;2.33;1.75;;;;;;;-0.31;66.10;97204.09;5075571;28;20051;-63
2022/01/07 01:34:23;;;;;;;1.90;1.40;;;;;;;-0.25;65.96;97212.84;5082928;28;20044;-58
2022/01/07 01:36:49;;;;;;;1.40;1.30;;;;;;;-0.15;66.18;97213.09;5095244;28;20036;-57
2022/01/07 01:39:15;;;;;;;2.33;1.30;;;;;;;-0.10;65.42;97202.00;5096556;28;20047;-57
2022/01/07 01:41:42;;;;;;;1.98;1.40;;;;;;;-0.07;65.36;97202.34;5076051;28;20125;-55
2022/01/07 01:44:08;;;;;;;2.20;1.35;;;;;;;-0.05;65.55;97210.75;5076218;28;20044;-54
2022/01/07 01:46:34;;;;;;;1.58;1.15;;;;;;;-0.03;65.34;97203.50;5076775;28;20040;-56
2022/01/07 01:49:00;;;;;;;1.77;1.30;;;;;;;0.04;65.02;97202.63;5080662;28;20059;-57
2022/01/07 01:51:26;;;;;;;1.63;1.20;;;;;;;0.10;64.95;97206.94;5097580;28;20040;-56
2022/01/07 01:53:53;;;;;;;1.98;1.33;;;;;;;0.05;64.89;97199.00;5076899;28;20421;-58
2022/01/07 01:56:19;;;;;;;1.48;1.23;;;;;;;0.07;65.34;97210.00;5090338;28;20072;-57
2022/01/07 01:58:45;;;;;;;1.65;1.52;;;;;;;0.00;65.22;97212.69;5094313;28;20077;-56
2022/01/07 02:01:10;;;;;;;4.18;2.35;;;;;;;0.05;65.36;97215.41;5087162;28;20066;-57
2022/01/07 02:03:36;;;;;;;2.85;1.58;;;;;;;0.07;65.47;97233.44;5073902;28;20040;-55
2022/01/07 02:06:02;;;;;;;2.30;1.40;;;;;;;0.10;65.44;97220.75;5072047;28;20053;-54
2022/01/07 02:08:29;;;;;;;2.58;1.25;;;;;;;0.11;65.18;97221.53;5073351;28;20044;-57
2022/01/07 02:10:57;;;;;;;1.92;1.40;;;;;;;0.12;65.71;97216.13;5082805;28;20071;-57
2022/01/07 02:13:23;;;;;;;2.25;1.23;;;;;;;0.12;65.44;97217.91;5087376;28;20098;-56
2022/01/07 02:15:49;;;;;;;2.42;1.65;;;;;;;0.08;65.21;97209.75;5071685;28;20501;-58
2022/01/07 02:18:18;;;;;;;2.45;1.20;;;;;;;0.08;65.55;97212.34;5073706;28;20056;-57
2022/01/07 02:20:44;;;;;;;4.32;1.70;;;;;;;0.05;65.35;97215.41;5073131;28;20044;-57
2022/01/07 02:23:10;;;;;;;1.48;1.38;;;;;;;0.11;65.23;97216.34;5073298;28;20094;-58
2022/01/07 02:25:36;;;;;;;1.20;1.10;;;;;;;0.16;65.24;97213.84;5072866;28;20040;-57
2022/01/07 02:28:03;;;;;;;1.58;1.48;;;;;;;0.17;65.03;97200.59;5072822;28;20052;-57
2022/01/07 02:30:30;;;;;;;1.63;1.33;;;;;;;0.22;65.44;97211.13;5073591;28;20068;-57
2022/01/07 02:32:57;;;;;;;1.65;1.33;;;;;;;0.25;64.67;97209.91;5088349;28;20559;-57
2022/01/07 02:35:28;;;;;;;3.45;1.77;;;;;;;0.26;65.21;97214.09;5077655;28;20114;-57
2022/01/07 02:37:55;;;;;;;1.50;1.40;;;;;;;0.25;65.26;97214.31;5072501;28;20114;-58
2022/01/07 02:40:21;;;;;;;3.28;1.70;;;;;;;0.21;65.02;97217.38;5072400;28;20115;-57
2022/01/07 02:42:47;;;;;;;3.45;1.60;;;;;;;0.22;65.50;97226.00;5073625;28;20128;-58
2022/01/07 02:45:13;;;;;;;2.35;2.15;;;;;;;0.13;65.67;97235.16;5091025;28;20096;-57
2022/01/07 02:48:01;;;;;;;4.03;1.70;;;;;;;0.15;65.43;97239.13;5091463;28;20517;-57
2022/01/07 02:50:35;;;;;;;1.75;1.45;;;;;;;0.09;65.84;97234.81;5079411;28;20041;-57
2022/01/07 02:53:02;;;;;;;2.45;1.63;;;;;;;0.12;65.77;97236.13;5080769;28;20080;-56
2022/01/07 02:55:28;;;;;;;5.55;1.58;;;;;;;0.15;66.05;97243.53;5088331;28;20033;-56
2022/01/07 02:57:54;;;;;;;2.58;1.40;;;;;;;0.13;66.06;97237.75;5073097;28;20052;-58
2022/01/07 03:00:21;;;;;;;3.00;1.60;;;;;;;0.06;66.39;97247.44;5090520;28;20101;-57
2022/01/07 03:02:48;;;;;;;2.15;1.60;;;;;;;0.03;66.40;97240.91;5076417;28;20135;-57
2022/01/07 03:05:15;;;;;;;4.15;1.92;;;;;;;0.03;66.66;97248.72;5080779;28;20135;-59
2022/01/07 03:07:42;;;;;;;2.55;1.60;;;;;;;0.09;66.40;97252.22;5087083;28;20075;-56
2022/01/07 03:10:09;;;;;;;1.85;1.23;;;;;;;0.07;66.48;97255.06;5071005;28;20472;-58
2022/01/07 03:12:37;;;;;;;2.95;1.55;;;;;;;0.00;66.72;97251.78;5072319;28;20049;-58
2022/01/07 03:15:06;;;;;;;2.05;1.45;;;;;;;0.02;67.32;97256.75;5086915;28;20467;-58
2022/01/07 03:17:32;;;;;;;2.00;1.38;;;;;;;0.08;66.95;97258.47;5059652;28;20051;-56
2022/01/07 03:19:58;;;;;;;2.28;1.40;;;;;;;0.04;67.05;97268.53;5057639;28;20497;-58
2022/01/07 03:22:24;;;;;;;3.53;1.60;;;;;;;-0.03;67.31;97260.00;5072817;28;20047;-57
2022/01/07 03:24:50;;;;;;;1.52;1.40;;;;;;;-0.04;67.42;97268.84;5091498;28;20423;-59
2022/01/07 03:27:16;;;;;;;2.75;1.40;;;;;;;-0.07;67.92;97274.50;5073344;28;20048;-57
2022/01/07 03:29:42;;;;;;;2.63;1.48;;;;;;;-0.07;67.08;97282.31;5071719;28;20273;-58
2022/01/07 03:32:08;;;;;;;3.28;1.88;;;;;;;-0.09;67.15;97287.75;5071570;28;20040;-56
2022/01/07 03:34:33;;;;;;;3.65;1.80;;;;;;;-0.25;67.54;97285.72;5071183;28;20059;-57
2022/01/07 03:36:59;;;;;;;1.55;1.40;;;;;;;-0.31;68.42;97292.59;5071949;28;20049;-57
2022/01/07 03:39:25;;;;;;;1.88;1.58;;;;;;;-0.35;68.56;97288.88;5086731;28;20051;-57
2022/01/07 03:41:51;;;;;;;4.10;2.72;;;;;;;-0.38;68.05;97293.69;5077444;28;20505;-57
2022/01/07 03:44:17;;;;;;;2.58;1.80;;;;;;;-0.50;67.97;97289.25;5069945;28;20471;-58
2022/01/07 03:46:43;;;;;;;4.38;1.58;;;;;;;-0.68;68.00;97291.81;5053300;28;20406;-55
2022/01/07 03:49:08;;;;;;;3.60;2.20;;;;;;;-0.62;68.20;97296.16;5072112;28;20041;-59
2022/01/07 03:51:34;;;;;;;3.88;2.38;;;;;;;-0.65;67.64;97293.19;5071104;28;20040;-57
2022/01/07 03:54:00;;;;;;;3.45;2.45;;;;;;;-0.80;67.51;97298.75;5082392;28;20043;-58
2022/01/07 03:56:26;;;;;;;2.00;1.80;;;;;;;-0.86;67.47;97297.81;5081719;28;20493;-56
2022/01/07 03:58:52;;;;;;;2.75;2.08;;;;;;;-0.95;67.61;97294.69;5070931;28;20489;-55
2022/01/07 04:01:18;;;;;;;2.50;1.70;;;;;;;-1.02;68.14;97295.78;5070784;28;20109;-56
2022/01/07 04:03:43;;;;;;;2.20;1.60;;;;;;;-1.08;67.81;97292.22;5087448;28;20044;-58
2022/01/07 04:06:09;;;;;;;3.08;1.90;;;;;;;-1.03;68.21;97308.00;5077424;28;20501;-56
2022/01/07 04:08:35;;;;;;;1.48;1.38;;;;;;;-1.01;68.00;97307.75;5071191;28;20041;-56
2022/01/07 04:11:01;;;;;;;2.20;1.48;;;;;;;-1.23;68.17;97309.97;5070943;28;20075;-56
2022/01/07 04:13:27;;;;;;;1.55;1.30;;;;;;;-1.26;68.03;97313.78;5072140;28;20040;-59
2022/01/07 04:15:53;;;;;;;2.72;1.33;;;;;;;-1.31;67.58;97318.81;5087234;28;20050;-57
2022/01/07 04:18:18;;;;;;;1.33;1.08;;;;;;;-1.32;67.31;97325.03;5076776;28;20044;-58
2022/01/07 04:20:44;;;;;;;2.17;1.70;;;;;;;-1.30;67.98;97330.78;5070697;28;20115;-57
2022/01/07 04:23:10;;;;;;;2.72;1.88;;;;;;;-1.28;67.67;97333.19;5070454;28;20064;-57
2022/01/07 04:25:36;;;;;;;4.68;2.97;;;;;;;-1.30;68.04;97328.19;5071426;28;20099;-57
2022/01/07 04:28:05;;;;;;;2.33;1.30;;;;;;;-1.31;67.53;97333.59;5070903;28;20044;-58
2022/01/07 04:30:34;;;;;;;2.55;1.58;;;;;;;-1.37;66.95;97336.03;5082770;28;20489;-59
2022/01/07 04:33:02;;;;;;;1.85;1.27;;;;;;;-1.44;67.10;97330.09;5078899;28;20504;-56
2022/01/07 04:35:28;;;;;;;2.95;1.60;;;;;;;-1.60;66.73;97336.59;5073673;28;20040;-58
2022/01/07 04:37:54;;;;;;;1.88;1.45;;;;;;;-1.55;67.36;97332.59;5089290;28;20150;-58
2022/01/07 04:40:20;;;;;;;1.52;1.30;;;;;;;-1.61;66.79;97348.00;5071501;28;20051;-58
2022/01/07 04:42:46;;;;;;;2.15;1.40;;;;;;;-1.68;67.29;97342.03;5070821;28;20052;-58
2022/01/07 04:45:13;;;;;;;1.23;1.13;;;;;;;-1.82;67.34;97348.31;5080406;28;20044;-58
2022/01/07 04:47:39;;;;;;;1.60;1.35;;;;;;;-1.75;67.60;97348.28;5082864;28;20068;-57
2022/01/07 04:50:09;;;;;;;1.30;1.20;;;;;;;-1.75;66.90;97346.47;5069884;28;20422;-57
2022/01/07 04:52:35;;;;;;;1.75;1.35;;;;;;;-1.77;67.30;97352.88;5091783;28;20079;-63
2022/01/07 04:55:02;;;;;;;1.77;1.50;;;;;;;-1.77;67.36;97356.28;5072608;28;20124;-64
2022/01/07 04:57:28;;;;;;;2.15;1.40;;;;;;;-1.79;67.72;97358.31;5070209;28;20544;-57
2022/01/07 04:59:54;;;;;;;1.67;1.40;;;;;;;-1.91;67.63;97362.53;5070018;28;20044;-58
2022/01/07 05:02:20;;;;;;;1.83;1.45;;;;;;;-1.92;67.52;97369.53;5069019;28;20040;-58
2022/01/07 05:04:47;;;;;;;1.70;1.42;;;;;;;-1.93;67.88;97370.53;5068819;28;20105;-59
2022/01/07 05:07:13;;;;;;;2.00;1.50;;;;;;;-2.10;67.84;97369.41;5068862;28;20045;-62
2022/01/07 05:09:39;;;;;;;2.00;1.27;;;;;;;-2.06;66.99;97380.97;5069701;28;20040;-61
2022/01/07 05:12:05;;;;;;;2.63;1.58;;;;;;;-2.12;67.39;97381.78;5035517;28;20135;-61
2022/01/07 05:14:31;;;;;;;1.67;1.50;;;;;;;-2.11;67.08;97389.38;5069248;28;20154;-62
2022/01/07 05:16:57;;;;;;;4.45;1.70;;;;;;;-2.11;67.26;97391.97;5068577;28;20417;-61
2022/01/07 05:19:23;;;;;;;2.33;1.30;;;;;;;-2.15;67.39;97397.78;5069856;28;20048;-61
2022/01/07 05:21:49;;;;;;;2.33;1.50;;;;;;;-2.31;67.68;97399.03;5070914;28;20041;-63
2022/01/07 05:24:14;;;;;;;2.33;1.90;;;;;;;-2.34;67.78;97404.63;5068615;28;20495;-61
2022/01/07 05:26:42;;;;;;;2.25;1.65;;;;;;;-2.41;67.36;97409.03;5070018;28;20044;-61
2022/01/07 05:29:07;;;;;;;2.42;1.80;;;;;;;-2.41;67.66;97412.44;5068512;28;20075;-61
2022/01/07 05:31:33;;;;;;;2.67;1.40;;;;;;;-2.32;67.14;97410.41;5068410;28;20579;-61
2022/01/07 05:33:59;;;;;;;3.08;2.05;;;;;;;-2.33;67.45;97419.97;5070501;28;20493;-61
2022/01/07 05:36:25;;;;;;;1.55;1.45;;;;;;;-2.45;67.34;97429.38;5073514;28;20464;-62
2022/01/07 05:38:51;;;;;;;2.13;1.60;;;;;;;-2.43;66.70;97429.19;5072119;28;20406;-62
2022/01/07 05:41:18;;;;;;;3.78;2.05;;;;;;;-2.43;67.20;97430.00;5055515;28;20044;-61
2022/01/07 05:43:44;;;;;;;3.90;2.63;;;;;;;-2.45;67.11;97428.59;5072305;28;20474;-62
2022/01/07 05:46:13;;;;;;;3.60;2.30;;;;;;;-2.37;66.70;97433.56;5056106;28;20127;-62
2022/01/07 05:48:39;;;;;;;3.78;2.45;;;;;;;-2.43;66.47;97434.38;5074096;28;20075;-62
2022/01/07 05:51:07;;;;;;;2.88;2.00;;;;;;;-2.49;66.70;97435.19;5023247;28;20040;-61
2022/01/07 05:53:33;;;;;;;4.35;2.35;;;;;;;-2.44;66.84;97431.00;5072441;28;20040;-61
2022/01/07 05:55:59;;;;;;;5.07;2.20;;;;;;;-2.51;65.60;97430.19;5072043;28;20075;-61
2022/01/07 05:58:24;;;;;;;6.30;2.10;;;;;;;-2.47;66.10;97435.78;5072558;28;20051;-61
2022/01/07 06:00:50;;;;;;;2.85;2.08;;;;;;;-2.52;65.35;97439.78;5094279;28;20036;-62
2022/01/07 06:03:16;;;;;;;3.42;2.10;;;;;;;-2.66;64.93;97447.78;5092360;28;20074;-62
2022/01/07 06:05:42;;;;;;;3.33;2.00;;;;;;;-2.67;64.68;97448.78;5080638;28;20535;-62
2022/01/07 06:08:09;;;;;;;3.38;2.10;;;;;;;-2.66;64.52;97447.78;5071931;28;20040;-61
2022/01/07 06:10:35;;;;;;;2.90;1.60;;;;;;;-2.67;63.81;97453.97;5073093;28;20060;-63
2022/01/07 06:13:01;;;;;;;3.15;1.50;;;;;;;-2.71;64.23;97458.72;5073879;28;20097;-61
2022/01/07 06:15:27;;;;;;;2.55;1.58;;;;;;;-2.70;64.28;97456.97;5073166;28;20094;-62
2022/01/07 06:17:53;;;;;;;2.33;1.90;;;;;;;-2.62;64.45;97467.94;5071862;28;20048;-61
2022/01/07 06:20:21;;;;;;;5.32;3.50;;;;;;;-2.63;64.36;97468.91;5079814;28;20040;-62
2022/01/07 06:22:47;;;;;;;4.40;3.28;;;;;;;-2.65;64.03;97470.91;5089794;28;20243;-63
2022/01/07 06:25:14;;;;;;;4.78;3.00;;;;;;;-2.70;64.18;97483.69;5073645;28;20096;-62
2022/01/07 06:27:40;;;;;;;4.13;2.92;;;;;;;-2.72;63.68;97484.88;5072922;28;20052;-61
2022/01/07 06:30:07;;;;;;;7.57;3.92;;;;;;;-2.75;62.70;97493.84;5071546;28;20179;-61
2022/01/07 06:32:33;;;;;;;5.32;2.53;;;;;;;-2.84;60.93;97493.25;5038042;28;20044;-61
2022/01/07 06:34:59;;;;;;;3.50;2.70;;;;;;;-3.02;59.44;97493.03;5054674;28;20051;-61
2022/01/07 06:37:26;;;;;;;2.88;1.50;;;;;;;-3.18;57.42;97494.19;5073922;28;20131;-61
2022/01/07 06:39:51;;;;;;;1.40;1.30;;;;;;;-3.14;56.86;97498.00;5072127;28;20414;-62
2022/01/07 06:42:17;;;;;;;6.28;3.20;;;;;;;-3.19;56.54;97487.41;5072518;28;20049;-61
2022/01/07 06:44:44;;;;;;;6.97;4.65;;;;;;;-3.18;57.02;97495.97;5072180;28;20048;-63
2022/01/07 06:47:10;;;;;;;4.50;2.28;;;;;;;-3.19;55.10;97502.97;5070708;28;20045;-61
2022/01/07 06:49:36;;;;;;;3.78;2.10;;;;;;;-3.19;55.07;97502.97;5071724;28;20101;-63
2022/01/07 06:52:02;;;;;;;6.15;3.10;;;;;;;-3.32;55.26;97495.94;5072509;28;20639;-62
2022/01/07 06:54:27;;;;;;;2.90;1.88;;;;;;;-3.35;54.87;97501.53;5086928;28;20036;-61
2022/01/07 06:56:53;;;;;;;2.65;1.65;;;;;;;-3.38;55.32;97503.69;5080137;28;20106;-62
2022/01/07 06:59:20;;;;;;;3.03;1.90;;;;;;;-3.45;55.79;97501.88;5070347;28;20131;-62
2022/01/07 07:01:47;;;;;;;2.17;1.90;;;;;;;-3.51;55.54;97499.25;5072338;28;20036;-61
2022/01/07 07:04:14;;;;;;;2.55;1.83;;;;;;;-3.52;56.28;97497.69;5070590;28;20036;-61
2022/01/07 07:06:40;;;;;;;8.35;3.75;;;;;;;-3.46;56.92;97504.66;5085880;28;20036;-61
2022/01/07 07:09:06;;;;;;;14.18;6.57;;;;;;;-3.35;56.61;97511.88;5080555;28;20053;-63
2022/01/07 07:11:32;;;;;;;9.13;4.10;;;;;;;-3.24;57.27;97518.28;5053371;28;20036;-61
2022/01/07 07:13:58;;;;;;;9.57;4.45;;;;;;;-3.24;57.87;97526.06;5038443;28;20469;-61
2022/01/07 07:16:24;;;;;;;6.35;2.92;;;;;;;-3.30;58.32;97519.06;5091473;28;20115;-62
2022/01/07 07:18:51;;;;;;;4.60;2.85;;;;;;;-3.33;58.47;97522.03;5074786;28;20045;-63
2022/01/07 07:21:18;;;;;;;6.78;3.63;;;;;;;-3.42;59.10;97521.41;5048030;28;20130;-62
2022/01/07 07:23:44;;;;;;;8.43;4.13;;;;;;;-3.46;59.40;97527.97;5056209;28;20222;-61
2022/01/07 07:26:11;;;;;;;8.15;4.25;;;;;;;-3.50;60.05;97527.56;5087574;28;20131;-61
2022/01/07 07:28:38;;;;;;;13.20;6.78;;;;;;;-3.60;59.93;97534.09;5054933;28;20128;-62
2022/01/07 07:31:09;;;;;;;8.38;4.60;;;;;;;-3.60;59.76;97534.88;5071242;28;20036;-62
2022/01/07 07:36:27;;;;;;;3.05;1.77;;;;;;;-3.64;60.68;97540.66;5071105;28;20571;-62
2022/01/07 07:38:54;;;;;;;2.85;1.95;;;;;;;-3.76;60.56;97543.00;5071153;28;20049;-62
2022/01/07 07:41:20;;;;;;;4.15;2.17;;;;;;;-3.74;61.14;97546.16;5069569;28;20036;-62
2022/01/07 07:43:52;;;;;;;2.63;2.15;;;;;;;-3.76;62.02;97548.97;5069876;28;20433;-62
2022/01/07 07:46:20;;;;;;;3.35;1.95;;;;;;;-3.89;62.06;97541.91;5068238;28;20037;-62
2022/01/07 07:48:46;;;;;;;5.05;2.88;;;;;;;-3.90;62.29;97545.50;5068441;28;20519;-61
2022/01/07 07:51:15;;;;;;;3.42;1.98;;;;;;;-3.76;62.07;97546.38;5070559;28;20077;-60
2022/01/07 07:53:41;;;;;;;3.63;1.92;;;;;;;-3.86;61.29;97551.06;5070550;28;20045;-62
2022/01/07 07:56:08;;;;;;;3.08;1.83;;;;;;;-3.81;60.69;97547.94;5070292;28;20036;-62
2022/01/07 07:58:34;;;;;;;2.75;1.40;;;;;;;-3.86;61.23;97547.69;5071062;28;20066;-63
2022/01/07 08:01:00;;;;;;;3.03;1.70;;;;;;;-3.83;61.69;97548.09;5070173;28;20452;-62
2022/01/07 08:03:27;;;;;;;3.65;2.28;;;;;;;-3.86;60.79;97551.06;5070955;28;20392;-63
2022/01/07 08:05:52;;;;;;;3.47;2.08;;;;;;;-3.81;61.50;97550.53;5070739;28;20040;-61
2022/01/07 08:08:18;;;;;;;5.07;2.55;;;;;;;-3.82;62.00;97549.72;5070309;28;20047;-62
2022/01/07 08:10:50;;;;;;;5.65;1.83;;;;;;;-3.81;61.39;97553.09;5069373;28;20074;-59
2022/01/07 08:15:58;;;;;;;2.50;1.67;;;;;;;-3.88;61.41;97553.88;5072183;28;20052;-61
2022/01/07 08:16:19;;;;;;;1.58;1.38;;;;;;;-4.13;61.47;97573.41;5071199;28;20067;-61
2022/01/07 08:18:53;;;;;;;2.55;1.95;;;;;;;-4.18;62.65;97573.16;5069598;28;20480;-64
2022/01/07 08:21:19;;;;;;;4.80;2.90;;;;;;;-4.23;62.39;97576.31;5069029;28;20509;-60
2022/01/07 08:23:46;;;;;;;3.47;2.03;;;;;;;-4.19;62.63;97580.13;5077344;28;20131;-60
2022/01/07 08:26:14;;;;;;;1.92;1.70;;;;;;;-4.30;62.10;97577.25;5076728;28;20044;-62
2022/01/07 08:29:06;;;;;;;2.97;2.05;;;;;;;-4.40;62.84;97585.34;5070006;28;20036;-62
2022/01/07 08:36:41;;;;;;;3.65;1.95;;;;;;;-4.45;62.35;97592.84;5068227;28;20040;-62
2022/01/07 08:39:09;;;;;;;3.22;1.95;;;;;;;-4.55;63.24;97594.94;5070002;28;20124;-63
2022/01/07 08:41:36;;;;;;;1.85;1.55;;;;;;;-4.62;62.41;97598.28;5070916;28;20609;-62
2022/01/07 08:44:03;;;;;;;3.15;2.20;;;;;;;-4.63;62.38;97588.91;5069702;28;20039;-60
2022/01/07 08:46:29;;;;;;;1.65;1.40;;;;;;;-4.60;61.74;97605.84;5069982;28;20036;-62
2022/01/07 08:48:57;;;;;;;2.20;1.55;;;;;;;-4.52;61.93;97604.94;5053588;28;20040;-65
2022/01/07 08:51:22;;;;;;;2.80;1.92;;;;;;;-4.49;62.03;97610.53;5070221;28;20082;-63
2022/01/07 08:53:49;;;;;;;1.67;1.38;;;;;;;-4.48;61.47;97609.53;5068626;28;20044;-63
2022/01/07 08:56:16;;;;;;;2.30;1.80;;;;;;;-4.55;61.34;97616.44;5051669;28;20028;-62
2022/01/07 08:58:43;;;;;;;2.70;1.92;;;;;;;-4.62;62.14;97628.47;5069679;28;20036;-61
2022/01/07 09:01:09;;;;;;;3.78;1.90;;;;;;;-4.57;62.01;97620.97;5069975;28;20032;-62
2022/01/07 09:03:34;;;;;;;2.60;1.83;;;;;;;-4.55;61.50;97626.78;5069695;28;20468;-62
2022/01/07 09:06:00;;;;;;;2.20;1.60;;;;;;;-4.60;62.14;97616.97;5069973;28;20529;-60
2022/01/07 09:08:27;;;;;;;1.55;1.40;;;;;;;-4.54;61.84;97610.25;5070004;28;20602;-62
2022/01/07 09:10:53;;;;;;;4.28;2.20;;;;;;;-4.49;62.04;97612.31;5073554;28;20071;-62
2022/01/07 09:13:20;;;;;;;3.50;1.80;;;;;;;-4.52;61.30;97617.84;5076138;28;20036;-63
2022/01/07 09:15:46;;;;;;;3.55;1.77;;;;;;;-4.65;62.42;97608.97;5072561;28;20186;-65
2022/01/07 09:18:14;;;;;;;2.22;1.65;;;;;;;-4.59;62.45;97621.19;5072584;28;20044;-64
2022/01/07 09:20:42;;;;;;;2.05;1.58;;;;;;;-4.50;61.78;97627.03;5072129;28;20028;-62
2022/01/07 09:23:09;;;;;;;3.13;1.65;;;;;;;-4.55;61.73;97625.97;5074091;28;20094;-61
2022/01/07 09:25:35;;;;;;;2.28;1.70;;;;;;;-4.56;61.45;97638.09;5073784;28;20430;-61
2022/01/07 09:28:01;;;;;;;3.25;1.88;;;;;;;-4.57;61.98;97639.06;5073488;28;20048;-62
2022/01/07 09:30:27;;;;;;;3.35;1.85;;;;;;;-4.67;62.26;97633.41;5072752;28;20047;-63
2022/01/07 09:32:53;;;;;;;2.47;1.70;;;;;;;-4.64;62.33;97639.03;5073071;28;20526;-61
2022/01/07 09:35:19;;;;;;;2.88;1.70;;;;;;;-4.62;62.02;97637.06;5073121;28;20048;-61
2022/01/07 09:37:45;;;;;;;3.90;2.40;;;;;;;-4.63;62.53;97650.94;5073330;28;20036;-63
2022/01/07 09:40:12;;;;;;;6.20;2.38;;;;;;;-4.58;62.29;97646.03;5071109;28;20490;-63
2022/01/07 09:42:39;;;;;;;6.28;4.10;;;;;;;-4.50;61.67;97652.88;5072437;28;20032;-60
2022/01/07 09:45:05;;;;;;;4.88;3.30;;;;;;;-4.48;61.44;97650.09;5070836;28;20036;-62
2022/01/07 09:47:31;;;;;;;3.58;2.28;;;;;;;-4.45;61.22;97641.97;5054726;28;20076;-61
2022/01/07 09:49:57;;;;;;;3.05;1.92;;;;;;;-4.48;61.17;97648.31;5055293;28;20029;-63
2022/01/07 09:52:26;;;;;;;3.08;1.95;;;;;;;-4.48;60.85;97656.06;5071556;28;20113;-61
2022/01/07 09:54:52;;;;;;;3.78;2.10;;;;;;;-4.50;61.35;97647.72;5056074;28;20134;-62
2022/01/07 09:57:18;;;;;;;4.05;2.05;;;;;;;-4.61;61.99;97653.38;5074940;28;20128;-63
2022/01/07 09:59:53;;;;;;;2.83;2.10;;;;;;;-4.59;61.51;97644.44;5055603;28;20041;-63
2022/01/07 10:02:18;;;;;;;5.03;2.30;;;;;;;-4.53;61.95;97649.84;5088437;28;20040;-61
2022/01/07 10:04:44;;;;;;;3.15;1.98;;;;;;;-4.53;61.35;97648.06;5054019;28;20525;-59
2022/01/07 10:07:17;;;;;;;4.70;2.78;;;;;;;-4.50;61.71;97652.88;5054835;28;20049;-58
2022/01/07 10:10:01;;;;;;;3.35;2.10;;;;;;;-4.47;60.77;97651.69;5073008;28;20510;-59
2022/01/07 10:12:31;;;;;;;3.67;2.03;;;;;;;-4.51;60.67;97653.84;5073727;28;20127;-60
2022/01/07 10:15:15;;;;;;;3.80;1.67;;;;;;;-4.54;61.26;97643.09;5056300;28;20076;-59
2022/01/07 10:17:41;;;;;;;4.50;2.10;;;;;;;-4.47;61.13;97642.19;5071472;28;20100;-59
2022/01/07 10:20:08;;;;;;;3.65;2.00;;;;;;;-4.57;61.23;97646.84;5073063;28;20078;-57
2022/01/07 10:22:55;;;;;;;2.70;1.83;;;;;;;-4.58;60.63;97647.81;5070862;28;20041;-58
2022/01/07 10:25:26;;;;;;;3.67;2.78;;;;;;;-4.58;60.93;97645.25;5071601;28;20040;-58
2022/01/07 10:27:52;;;;;;;2.95;1.95;;;;;;;-4.51;61.06;97640.94;5073096;28;20529;-59
2022/01/07 10:30:25;;;;;;;3.72;2.08;;;;;;;-4.48;61.12;97642.34;5071221;28;20033;-59
2022/01/07 10:32:54;;;;;;;3.58;1.98;;;;;;;-4.51;60.28;97625.41;5072936;28;20485;-58
2022/01/07 10:35:23;;;;;;;4.32;2.28;;;;;;;-4.40;60.16;97643.03;5093359;28;20087;-59
2022/01/07 10:37:56;;;;;;;3.67;2.05;;;;;;;-4.39;60.49;97641.25;5073734;28;20052;-59
2022/01/07 10:40:39;;;;;;;1.98;1.50;;;;;;;-4.36;59.81;97636.50;5071182;28;20040;-60
2022/01/07 10:43:13;;;;;;;3.72;2.17;;;;;;;-4.33;60.34;97635.31;5082596;28;20114;-58
2022/01/07 10:46:04;;;;;;;3.35;1.98;;;;;;;-4.34;60.30;97634.53;5061839;28;20093;-58
2022/01/07 10:48:39;;;;;;;5.55;3.47;;;;;;;-4.27;60.37;97631.19;5056805;28;20539;-61
2022/01/07 10:51:08;;;;;;;4.80;2.38;;;;;;;-4.30;59.27;97634.94;5072366;28;20051;-60
2022/01/07 10:53:34;;;;;;;4.47;2.33;;;;;;;-4.38;60.12;97632.50;5072221;28;20151;-59
2022/01/07 10:56:12;;;;;;;6.25;2.83;;;;;;;-4.24;59.93;97638.59;5071597;28;20113;-62
2022/01/07 10:58:46;;;;;;;4.57;2.15;;;;;;;-4.33;59.47;97624.97;5080263;28;20100;-61
2022/01/07 11:01:21;;;;;;;5.43;2.20;;;;;;;-4.33;59.70;97637.91;5084624;28;20039;-62
2022/01/07 11:03:48;;;;;;;3.38;2.10;;;;;;;-4.34;60.53;97625.97;5090472;28;20470;-59
2022/01/07 11:06:14;;;;;;;5.05;2.60;;;;;;;-4.24;60.05;97621.28;5090507;28;20497;-60
2022/01/07 11:08:40;;;;;;;3.30;2.38;;;;;;;-4.23;60.02;97622.91;5091306;28;20040;-60
2022/01/07 11:11:08;;;;;;;3.67;2.55;;;;;;;-4.20;59.33;97616.56;5072262;28;20135;-61
2022/01/07 11:13:35;;;;;;;2.72;2.08;;;;;;;-4.28;59.12;97616.66;5053102;28;20082;-59
2022/01/07 11:16:05;;;;;;;3.90;2.20;;;;;;;-4.34;59.53;97615.63;5082290;28;20075;-60
2022/01/07 11:18:32;;;;;;;2.17;1.60;;;;;;;-4.28;59.89;97625.22;5082736;28;20051;-60
2022/01/07 11:21:04;;;;;;;4.65;1.40;;;;;;;-4.27;60.01;97623.44;5036448;28;20033;-60
2022/01/07 11:23:31;;;;;;;3.22;1.77;;;;;;;-4.23;59.56;97622.91;5072739;28;20036;-59
2022/01/07 11:26:02;;;;;;;7.65;2.92;;;;;;;-4.22;60.19;97626.28;5087713;28;20130;-61
2022/01/07 11:28:29;;;;;;;5.97;2.92;;;;;;;-4.23;59.64;97624.69;5090264;28;20069;-59
2022/01/07 11:31:07;;;;;;;4.53;1.92;;;;;;;-4.23;59.89;97622.91;5081099;28;20086;-59
2022/01/07 11:33:33;;;;;;;1.75;1.58;;;;;;;-4.23;60.36;97611.75;5071297;28;20047;-61
2022/01/07 11:35:59;;;;;;;2.55;1.50;;;;;;;-4.22;59.98;97615.94;5066819;28;20052;-60
2022/01/07 11:38:43;;;;;;;2.28;1.55;;;;;;;-4.28;60.24;97616.66;5070620;28;20036;-60
2022/01/07 11:41:13;;;;;;;3.40;1.70;;;;;;;-4.30;60.64;97619.44;5069798;28;20521;-60
2022/01/07 11:43:46;;;;;;;4.07;1.60;;;;;;;-4.26;60.25;97617.28;5035233;28;20048;-59